createdAt,value
2023-04-22T00:02:01.885Z,67.87
2023-04-22T00:04:30.028Z,67.95
2023-04-22T00:06:58.175Z,67.88
2023-04-22T00:09:26.155Z,68.29
2023-04-22T00:11:53.904Z,68.29
2023-04-22T00:14:21.688Z,68.76
2023-04-22T00:16:49.506Z,68.82
2023-04-22T00:19:17.220Z,68.74
2023-04-22T00:21:45.182Z,69.00
2023-04-22T00:24:13.050Z,69.63
2023-04-22T00:26:43.549Z,69.39
2023-04-22T00:29:11.414Z,69.22
2023-04-22T00:31:39.402Z,69.36
2023-04-22T00:34:07.439Z,69.56
2023-04-22T00:36:35.300Z,70.24
2023-04-22T00:39:03.171Z,69.91
2023-04-22T00:41:32.294Z,70.13
2023-04-22T00:44:00.872Z,70.42
2023-04-22T00:46:29.490Z,70.40
2023-04-22T00:48:58.233Z,70.61
2023-04-22T00:51:26.081Z,70.99
2023-04-22T00:53:53.936Z,70.50
2023-04-22T00:56:22.361Z,70.54
2023-04-22T00:58:50.391Z,70.66
2023-04-22T01:01:18.845Z,71.21
2023-04-22T01:03:48.542Z,71.54
2023-04-22T01:06:20.512Z,71.64
2023-04-22T01:08:48.646Z,71.52
2023-04-22T01:11:16.600Z,71.49
2023-04-22T01:13:44.365Z,71.69
2023-04-22T01:16:13.222Z,71.98
2023-04-22T01:18:41.808Z,72.13
2023-04-22T01:21:09.979Z,72.33
2023-04-22T01:23:38.252Z,72.48
2023-04-22T01:26:06.181Z,72.37
2023-04-22T01:28:34.073Z,72.46
2023-04-22T01:31:02.187Z,72.48
2023-04-22T01:33:30.144Z,72.80
2023-04-22T01:35:59.697Z,72.95
2023-04-22T01:38:27.511Z,72.99
2023-04-22T01:40:55.467Z,72.91
2023-04-22T01:43:23.744Z,73.08
2023-04-22T01:45:51.515Z,73.02
2023-04-22T01:48:19.359Z,73.23
2023-04-22T01:50:47.220Z,73.25
2023-04-22T01:53:14.952Z,73.56
2023-04-22T01:55:43.374Z,73.49
2023-04-22T01:58:11.198Z,73.69
2023-04-22T02:00:39.054Z,73.93
2023-04-22T02:03:07.572Z,74.00
2023-04-22T02:05:35.526Z,74.09
2023-04-22T02:08:03.317Z,74.04
2023-04-22T02:10:31.402Z,74.20
2023-04-22T02:12:59.148Z,74.22
2023-04-22T02:15:26.963Z,74.53
2023-04-22T02:17:55.032Z,74.80
2023-04-22T02:20:22.772Z,74.62
2023-04-22T02:22:51.077Z,74.90
2023-04-22T02:25:18.936Z,75.00
2023-04-22T02:27:46.676Z,75.37
2023-04-22T02:30:14.777Z,75.34
2023-04-22T02:32:42.740Z,75.33
2023-04-22T02:35:11.763Z,75.58
2023-04-22T02:37:39.916Z,75.74
2023-04-22T02:40:09.273Z,75.97
2023-04-22T02:42:36.985Z,76.23
2023-04-22T02:45:05.532Z,76.38
2023-04-22T02:47:33.358Z,76.62
2023-04-22T02:50:01.174Z,76.89
2023-04-22T02:52:28.983Z,76.80
2023-04-22T02:54:58.798Z,76.77
2023-04-22T02:57:26.978Z,76.97
2023-04-22T02:59:54.868Z,76.88
2023-04-22T03:02:23.145Z,77.02
2023-04-22T03:04:52.375Z,77.13
2023-04-22T03:07:20.415Z,77.19
2023-04-22T03:09:48.113Z,77.22
2023-04-22T03:12:15.968Z,77.18
2023-04-22T03:14:43.816Z,77.24
2023-04-22T03:17:11.674Z,77.55
2023-04-22T03:19:39.697Z,77.49
2023-04-22T03:22:08.254Z,77.55
2023-04-22T03:24:36.079Z,77.76
2023-04-22T03:27:04.299Z,77.88
2023-04-22T03:29:32.212Z,77.81
2023-04-22T03:31:59.967Z,77.73
2023-04-22T03:34:27.872Z,77.54
2023-04-22T03:36:56.376Z,77.85
2023-04-22T03:39:24.201Z,77.89
2023-04-22T03:41:51.922Z,78.22
2023-04-22T03:44:19.651Z,78.38
2023-04-22T03:46:47.415Z,78.37
2023-04-22T03:49:15.629Z,78.14
2023-04-22T03:51:43.405Z,78.05
2023-04-22T03:54:11.249Z,78.22
2023-04-22T03:56:39.014Z,78.01
2023-04-22T03:59:06.732Z,78.04
2023-04-22T04:01:36.920Z,78.04
2023-04-22T04:04:13.492Z,78.32
2023-04-22T04:06:41.623Z,78.08
2023-04-22T04:09:14.116Z,78.00
2023-04-22T04:11:41.919Z,77.97
2023-04-22T04:14:09.879Z,77.91
2023-04-22T04:16:37.776Z,77.57
2023-04-22T04:19:06.446Z,77.50
2023-04-22T04:21:34.338Z,77.26
2023-04-22T04:24:03.439Z,77.36
2023-04-22T04:26:32.726Z,77.51
2023-04-22T04:29:01.941Z,77.27
2023-04-22T04:31:29.943Z,77.21
2023-04-22T04:33:58.645Z,77.03
2023-04-22T04:36:27.750Z,76.77
2023-04-22T04:38:56.920Z,76.21
2023-04-22T04:41:28.341Z,75.92
2023-04-22T04:44:00.721Z,75.75
2023-04-22T04:46:30.350Z,75.56
2023-04-22T04:48:58.921Z,75.26
2023-04-22T04:51:26.684Z,74.98
2023-04-22T04:53:54.696Z,74.26
2023-04-22T04:56:24.513Z,73.80
2023-04-22T04:58:52.389Z,73.11
2023-04-22T05:01:20.444Z,71.64
2023-04-22T05:03:48.494Z,70.68
2023-04-22T05:06:17.445Z,70.07
2023-04-22T05:08:45.570Z,68.90
2023-04-22T05:11:13.487Z,68.16
2023-04-22T05:13:41.653Z,67.50
2023-04-22T05:16:09.627Z,67.15
2023-04-22T05:18:37.353Z,66.84
2023-04-22T05:21:05.314Z,65.16
2023-04-22T05:23:33.148Z,61.97
2023-04-22T05:26:00.982Z,59.10
2023-04-22T05:28:28.792Z,55.53
2023-04-22T05:30:57.986Z,51.93
2023-04-22T05:33:25.655Z,49.51
2023-04-22T05:35:53.850Z,46.97
2023-04-22T05:38:21.693Z,44.79
2023-04-22T05:40:49.439Z,42.96
2023-04-22T05:43:17.234Z,41.25
2023-04-22T05:45:45.223Z,40.01
2023-04-22T05:48:13.038Z,39.30
2023-04-22T05:50:40.896Z,38.21
2023-04-22T05:53:08.680Z,37.14
2023-04-22T05:55:36.485Z,36.20
2023-04-22T05:58:04.286Z,35.55
2023-04-22T06:00:32.250Z,35.50
2023-04-22T06:03:00.184Z,34.87
2023-04-22T06:05:28.332Z,34.95
2023-04-22T06:07:56.474Z,34.56
2023-04-22T06:10:24.292Z,34.68
2023-04-22T06:12:53.593Z,34.03
2023-04-22T06:15:21.971Z,33.91
2023-04-22T06:17:50.700Z,34.03
2023-04-22T06:20:18.612Z,34.20
2023-04-22T06:22:46.654Z,34.66
2023-04-22T06:25:15.264Z,34.84
2023-04-22T06:27:43.213Z,34.88
2023-04-22T06:30:12.315Z,34.12
2023-04-22T06:32:40.237Z,34.80
2023-04-22T06:35:08.460Z,35.67
2023-04-22T06:37:37.078Z,35.44
2023-04-22T06:40:05.353Z,35.17
2023-04-22T06:42:33.046Z,34.99
2023-04-22T06:45:06.601Z,35.25
2023-04-22T06:47:34.761Z,34.49
2023-04-22T06:50:02.691Z,34.93
2023-04-22T06:52:30.430Z,36.05
2023-04-22T06:54:58.182Z,36.08
2023-04-22T06:57:28.201Z,35.62
2023-04-22T06:59:56.229Z,35.19
2023-04-22T07:02:24.110Z,35.54
2023-04-22T07:04:55.185Z,34.88
2023-04-22T07:07:23.949Z,34.04
2023-04-22T07:22:07.128Z,32.21
2023-04-22T07:24:38.796Z,31.87
2023-04-22T07:27:48.396Z,32.13
2023-04-22T07:30:20.169Z,31.97
2023-04-22T07:32:49.205Z,31.96
2023-04-22T07:35:16.258Z,32.69
2023-04-22T07:37:43.178Z,32.44
2023-04-22T07:41:45.228Z,31.17
2023-04-22T07:44:18.529Z,30.23
2023-04-22T07:46:50.703Z,29.52
2023-04-22T07:49:20.119Z,28.79
2023-04-22T07:51:47.276Z,29.33
2023-04-22T08:07:32.665Z,29.51
2023-04-22T08:20:56.523Z,27.52
2023-04-22T08:24:01.453Z,27.71
2023-04-22T08:27:50.743Z,28.57
2023-04-22T08:41:29.513Z,25.99
2023-04-22T08:44:22.272Z,25.51
2023-04-22T08:58:19.639Z,24.74
2023-04-22T09:01:14.289Z,24.76
2023-04-22T09:03:45.037Z,24.06
2023-04-22T09:06:20.015Z,24.12
2023-04-22T09:08:50.669Z,23.76
2023-04-22T09:11:18.849Z,23.01
2023-04-22T09:13:49.632Z,22.56
2023-04-22T09:16:18.774Z,21.95
2023-04-22T09:18:50.230Z,23.15
2023-04-22T09:21:18.128Z,23.04
2023-04-22T09:23:51.477Z,22.71
2023-04-22T09:26:29.588Z,21.49
2023-04-22T09:28:59.389Z,21.73
2023-04-22T09:31:28.608Z,22.06
2023-04-22T09:33:58.879Z,21.17
2023-04-22T09:36:31.964Z,21.37
2023-04-22T09:39:09.642Z,22.03
2023-04-22T09:41:39.989Z,21.23
2023-04-22T09:44:16.677Z,21.90
2023-04-22T09:46:51.744Z,21.55
2023-04-22T09:49:21.612Z,22.06
2023-04-22T09:51:57.128Z,21.41
2023-04-22T09:54:26.581Z,20.53
2023-04-22T09:56:55.722Z,20.23
2023-04-22T09:59:42.868Z,20.18
2023-04-22T10:02:16.760Z,19.95
2023-04-22T10:04:47.595Z,19.78
2023-04-22T10:08:51.486Z,18.83
2023-04-22T10:11:38.868Z,19.11
2023-04-22T10:14:10.716Z,18.94
2023-04-22T10:16:59.309Z,18.55
2023-04-22T10:19:33.007Z,18.57
2023-04-22T10:22:05.976Z,18.83
2023-04-22T10:24:38.596Z,18.86
2023-04-22T10:27:12.822Z,18.45
2023-04-22T10:29:43.857Z,18.88
2023-04-22T10:32:22.786Z,17.96
2023-04-22T10:35:06.603Z,18.51
2023-04-22T10:38:08.694Z,19.55
2023-04-22T10:42:14.971Z,18.54
2023-04-22T10:44:48.417Z,19.77
2023-04-22T10:47:42.874Z,20.10
2023-04-22T10:50:20.151Z,19.97
2023-04-22T10:53:45.861Z,20.82
2023-04-22T10:57:55.022Z,21.41
2023-04-22T11:01:30.621Z,20.80
2023-04-22T11:05:27.115Z,20.73
2023-04-22T11:09:17.709Z,20.71
2023-04-22T11:22:46.038Z,17.93
2023-04-22T11:25:44.842Z,18.44
2023-04-22T11:30:05.121Z,18.49
2023-04-22T11:32:32.268Z,17.57
2023-04-22T11:35:09.026Z,18.34
2023-04-22T11:37:51.276Z,19.09
2023-04-22T11:40:46.220Z,19.67
2023-04-22T11:43:15.083Z,20.13
2023-04-22T11:45:44.362Z,19.64
2023-04-22T11:48:17.408Z,18.65
2023-04-22T11:50:45.909Z,18.17
2023-04-22T11:53:24.418Z,17.89
2023-04-22T11:55:53.049Z,18.26
2023-04-22T11:58:54.639Z,17.75
2023-04-22T12:01:25.905Z,17.14
2023-04-22T12:04:01.580Z,17.95
2023-04-22T12:06:32.594Z,18.66
2023-04-22T12:09:02.636Z,19.21
2023-04-22T12:13:47.667Z,17.84
2023-04-22T12:16:21.190Z,17.63
2023-04-22T12:18:56.753Z,17.30
2023-04-22T12:21:42.555Z,16.45
2023-04-22T12:24:12.028Z,16.30
2023-04-22T12:26:41.694Z,15.26
2023-04-22T12:29:09.946Z,15.91
2023-04-22T12:31:49.568Z,16.60
2023-04-22T12:34:18.429Z,17.77
2023-04-22T12:39:19.741Z,18.02
2023-04-22T12:42:41.112Z,19.00
2023-04-22T12:45:10.902Z,20.30
2023-04-22T12:47:42.607Z,20.47
2023-04-22T12:50:15.327Z,20.77
2023-04-22T12:52:43.336Z,20.12
2023-04-22T12:55:11.273Z,19.71
2023-04-22T12:57:40.099Z,18.69
2023-04-22T13:00:17.217Z,18.20
2023-04-22T13:02:47.799Z,18.92
2023-04-22T13:05:17.366Z,19.69
2023-04-22T13:07:53.182Z,19.98
2023-04-22T13:10:28.797Z,19.07
2023-04-22T13:13:06.429Z,18.87
2023-04-22T13:15:44.466Z,18.60
2023-04-22T13:18:13.989Z,18.78
2023-04-22T13:20:42.842Z,18.23
2023-04-22T13:23:11.017Z,18.03
2023-04-22T13:25:39.050Z,18.59
2023-04-22T13:28:11.797Z,18.10
2023-04-22T13:30:40.444Z,18.52
2023-04-22T13:33:08.319Z,18.69
2023-04-22T13:35:36.949Z,19.08
2023-04-22T13:38:05.995Z,18.64
2023-04-22T13:40:36.041Z,18.46
2023-04-22T13:43:05.221Z,18.61
2023-04-22T13:45:33.088Z,18.99
2023-04-22T13:48:01.270Z,19.08
2023-04-22T13:50:29.227Z,19.64
2023-04-22T13:52:57.308Z,19.78
2023-04-22T13:55:26.806Z,19.49
2023-04-22T13:57:54.874Z,19.02
2023-04-22T14:00:27.515Z,18.68
2023-04-22T14:02:56.587Z,18.83
2023-04-22T14:05:27.464Z,20.51
2023-04-22T14:07:56.090Z,20.06
2023-04-22T14:10:23.980Z,20.41
2023-04-22T14:12:52.310Z,21.30
2023-04-22T14:15:20.484Z,21.44
2023-04-22T14:17:49.944Z,21.01
2023-04-22T14:20:18.097Z,20.47
2023-04-22T14:22:46.525Z,20.36
2023-04-22T14:25:14.778Z,20.17
2023-04-22T14:27:43.214Z,19.61
2023-04-22T14:30:12.291Z,20.34
2023-04-22T14:32:42.472Z,20.58
2023-04-22T14:35:10.513Z,19.52
2023-04-22T14:37:42.182Z,18.79
2023-04-22T14:40:12.275Z,18.26
2023-04-22T14:42:47.898Z,18.18
2023-04-22T14:45:26.956Z,16.75
2023-04-22T14:47:56.402Z,16.46
2023-04-22T14:50:25.800Z,16.47
2023-04-22T14:56:22.188Z,16.33
2023-04-22T14:58:49.383Z,14.82
2023-04-22T15:01:16.548Z,15.54
2023-04-22T15:03:43.699Z,15.45
2023-04-22T15:06:11.446Z,16.10
2023-04-22T15:08:40.421Z,16.42
2023-04-22T15:11:07.244Z,16.16
2023-04-22T15:13:33.799Z,16.73
2023-04-22T15:16:05.825Z,16.83
2023-04-22T15:18:32.700Z,16.61
2023-04-22T15:21:02.413Z,15.54
2023-04-22T15:23:28.956Z,15.09
2023-04-22T15:25:55.873Z,15.13
2023-04-22T15:28:23.880Z,15.45
2023-04-22T15:30:55.970Z,15.37
2023-04-22T15:33:24.992Z,15.27
2023-04-22T15:35:51.988Z,15.95
2023-04-22T15:38:25.980Z,16.76
2023-04-22T15:40:56.327Z,17.43
2023-04-22T15:43:23.618Z,17.61
2023-04-22T15:45:52.455Z,16.95
2023-04-22T15:48:20.287Z,16.54
2023-04-22T15:50:53.865Z,16.30
2023-04-22T15:53:23.504Z,16.14
2023-04-22T15:55:53.117Z,15.88
2023-04-22T15:58:20.557Z,16.22
2023-04-22T16:00:51.632Z,16.81
2023-04-22T16:03:21.140Z,17.19
2023-04-22T16:06:33.418Z,17.29
2023-04-22T16:09:06.443Z,18.09
2023-04-22T16:11:55.683Z,19.10
2023-04-22T16:14:28.577Z,18.54
2023-04-22T16:19:53.117Z,17.43
2023-04-22T16:20:12.696Z,17.78
2023-04-22T16:22:22.531Z,17.35
2023-04-22T16:24:51.545Z,18.02
2023-04-22T16:27:18.595Z,18.21
2023-04-22T16:29:45.661Z,18.60
2023-04-22T16:32:12.805Z,18.82
2023-04-22T16:34:39.287Z,20.33
2023-04-22T16:37:05.889Z,21.60
2023-04-22T16:39:33.295Z,22.65
2023-04-22T16:59:38.709Z,27.04
2023-04-22T17:02:06.884Z,27.37
2023-04-22T17:04:34.983Z,27.71
2023-04-22T17:07:02.883Z,27.31
2023-04-22T17:09:32.847Z,27.03
2023-04-22T17:12:01.606Z,27.71
2023-04-22T17:14:29.917Z,27.95
2023-04-22T17:16:58.779Z,28.77
2023-04-22T17:19:27.957Z,28.95
2023-04-22T17:21:56.011Z,29.00
2023-04-22T17:24:25.281Z,28.70
2023-04-22T17:26:53.267Z,29.20
2023-04-22T17:29:21.963Z,29.27
2023-04-22T17:31:50.741Z,29.89
2023-04-22T17:40:36.846Z,31.10
2023-04-22T17:43:04.784Z,31.68
2023-04-22T17:45:33.201Z,32.06
2023-04-22T17:48:01.752Z,32.92
2023-04-22T17:50:29.683Z,33.43
2023-04-22T17:52:58.199Z,34.54
2023-04-22T17:55:33.167Z,34.75
2023-04-22T17:58:03.121Z,35.63
2023-04-22T18:00:33.458Z,36.54
2023-04-22T18:03:02.017Z,36.25
2023-04-22T18:05:29.985Z,35.94
2023-04-22T18:08:10.386Z,35.92
2023-04-22T18:10:38.917Z,36.23
2023-04-22T18:13:06.952Z,37.03
2023-04-22T18:15:34.811Z,38.62
2023-04-22T18:18:02.815Z,39.15
2023-04-22T18:20:30.687Z,38.62
2023-04-22T18:22:58.593Z,40.04
2023-04-22T18:25:26.909Z,40.38
2023-04-22T18:27:55.146Z,40.51
2023-04-22T18:30:23.626Z,40.49
2023-04-22T18:32:52.003Z,40.65
2023-04-22T18:35:20.302Z,40.52
2023-04-22T18:37:49.275Z,41.03
2023-04-22T18:40:17.649Z,41.59
2023-04-22T18:42:46.089Z,41.55
2023-04-22T18:45:16.695Z,41.30
2023-04-22T18:47:47.135Z,41.09
2023-04-22T18:50:15.257Z,41.42
2023-04-22T18:52:43.106Z,41.42
2023-04-22T18:55:11.398Z,41.44
2023-04-22T18:57:41.976Z,42.29
2023-04-22T19:00:10.962Z,43.44
2023-04-22T19:02:41.516Z,44.32
2023-04-22T19:05:10.696Z,44.47
2023-04-22T19:07:38.951Z,43.47
2023-04-22T19:10:07.975Z,44.34
2023-04-22T19:12:36.346Z,45.09
2023-04-22T19:15:06.974Z,44.68
2023-04-22T19:17:35.061Z,44.99
2023-04-22T19:20:05.323Z,45.54
2023-04-22T19:22:33.130Z,45.98
2023-04-22T19:25:01.186Z,46.02
2023-04-22T19:27:29.259Z,46.33
2023-04-22T19:29:57.042Z,47.20
2023-04-22T19:32:25.097Z,47.80
2023-04-22T19:34:53.960Z,48.39
2023-04-22T19:37:22.264Z,48.62
2023-04-22T19:39:50.177Z,47.64
2023-04-22T19:42:20.553Z,47.26
2023-04-22T19:44:49.861Z,48.56
2023-04-22T19:47:17.849Z,48.47
2023-04-22T19:49:46.238Z,48.88
2023-04-22T19:52:15.802Z,49.36
2023-04-22T19:54:47.757Z,49.58
2023-04-22T19:57:15.878Z,50.21
2023-04-22T19:59:45.606Z,50.89
2023-04-22T20:02:14.454Z,51.37
2023-04-22T20:04:43.238Z,51.80
2023-04-22T20:07:12.330Z,51.53
2023-04-22T20:09:43.207Z,50.69
2023-04-22T20:12:11.453Z,51.00
2023-04-22T20:14:39.480Z,52.05
2023-04-22T20:17:07.407Z,52.28
2023-04-22T20:19:35.378Z,51.41
2023-04-22T20:22:06.552Z,51.06
2023-04-22T20:24:37.277Z,51.40
2023-04-22T20:27:08.119Z,51.62
2023-04-22T20:29:38.486Z,51.53
2023-04-22T20:32:07.053Z,51.66
2023-04-22T20:34:36.190Z,51.61
2023-04-22T20:37:06.624Z,52.27
2023-04-22T20:42:21.414Z,52.83
2023-04-22T20:44:49.155Z,53.24
2023-04-22T20:47:17.317Z,53.36
2023-04-22T20:49:45.160Z,53.17
2023-04-22T20:52:13.332Z,53.12
2023-04-22T20:54:41.165Z,53.03
2023-04-22T20:57:08.872Z,53.47
2023-04-22T20:59:36.988Z,53.74
2023-04-22T21:02:06.724Z,53.13
2023-04-22T21:04:34.938Z,53.73
2023-04-22T21:07:07.044Z,53.61
2023-04-22T21:09:35.265Z,53.69
2023-04-22T21:17:35.632Z,54.35
2023-04-22T21:20:07.024Z,54.44
2023-04-22T21:22:36.034Z,54.48
2023-04-22T21:25:04.789Z,54.58
2023-04-22T21:27:34.663Z,54.67
2023-04-22T21:30:03.034Z,54.64
2023-04-22T21:32:33.200Z,54.85
2023-04-22T21:41:17.094Z,56.04
2023-04-22T21:43:48.722Z,56.33
2023-04-22T21:46:17.706Z,56.25
2023-04-22T21:48:45.623Z,56.21
2023-04-22T21:51:14.412Z,56.42
2023-04-22T21:53:44.522Z,56.09
2023-04-22T21:56:31.641Z,56.34
2023-04-22T21:59:00.777Z,56.62
2023-04-22T22:01:28.553Z,56.20
2023-04-22T22:03:57.626Z,55.94
2023-04-22T22:06:25.529Z,55.80
2023-04-22T22:08:53.465Z,56.00
2023-04-22T22:11:30.245Z,56.27
2023-04-22T22:13:59.226Z,56.56
2023-04-22T22:16:27.150Z,56.59
2023-04-22T22:18:57.838Z,56.35
2023-04-22T22:21:25.646Z,56.72
2023-04-22T22:23:53.741Z,57.18
2023-04-22T22:26:21.533Z,58.12
2023-04-22T22:28:50.464Z,57.84
2023-04-22T22:31:18.494Z,58.20
2023-04-22T22:33:48.664Z,57.94
2023-04-22T22:36:16.685Z,57.06
2023-04-22T22:38:49.125Z,56.61
2023-04-22T22:41:16.851Z,56.52
2023-04-22T22:43:44.559Z,56.43
2023-04-22T22:46:12.358Z,56.54
2023-04-22T22:48:40.342Z,56.66
2023-04-22T22:51:10.335Z,56.95
2023-04-22T22:53:38.152Z,57.36
2023-04-22T22:56:06.802Z,57.17
2023-04-22T22:58:36.272Z,57.36
2023-04-22T23:01:05.446Z,57.43
2023-04-22T23:03:33.965Z,57.36
2023-04-22T23:06:01.973Z,57.89
2023-04-22T23:08:29.629Z,57.94
2023-04-22T23:10:57.881Z,58.21
2023-04-22T23:13:25.911Z,58.50
2023-04-22T23:15:53.765Z,58.74
2023-04-22T23:18:22.137Z,58.80
2023-04-22T23:20:51.899Z,59.02
2023-04-22T23:23:19.787Z,59.08
2023-04-22T23:25:47.942Z,59.39
2023-04-22T23:28:16.100Z,59.74
2023-04-22T23:30:44.883Z,59.66
2023-04-22T23:33:14.713Z,59.82
2023-04-22T23:35:44.578Z,59.80
2023-04-22T23:38:12.415Z,59.90
2023-04-22T23:40:40.281Z,60.03
2023-04-22T23:43:08.428Z,60.19
2023-04-22T23:45:36.156Z,60.56
2023-04-22T23:48:04.650Z,60.61
2023-04-22T23:50:32.390Z,60.74
2023-04-22T23:53:00.305Z,61.00
2023-04-22T23:55:28.581Z,61.13
2023-04-22T23:57:59.080Z,61.43
